sensor_id;sensor_type;location;lat;lon;timestamp;P1;durP1;ratioP1;P2;durP2;ratioP2
70605;SDS011;58173;52.500;5.494;2023-09-07T00:00:46;5.95;;;2.90;;
70605;SDS011;58173;52.500;5.494;2023-09-07T00:03:13;6.65;;;3.40;;
70605;SDS011;58173;52.500;5.494;2023-09-07T00:05:41;5.20;;;2.78;;
70605;SDS011;58173;52.500;5.494;2023-09-07T00:08:08;5.82;;;2.75;;
70605;SDS011;58173;52.500;5.494;2023-09-07T00:10:35;6.55;;;3.08;;
70605;SDS011;58173;52.500;5.494;2023-09-07T00:13:03;6.93;;;3.20;;
70605;SDS011;58173;52.500;5.494;2023-09-07T00:15:30;6.30;;;3.28;;
70605;SDS011;58173;52.500;5.494;2023-09-07T00:18:02;5.53;;;2.92;;
70605;SDS011;58173;52.500;5.494;2023-09-07T00:20:29;5.55;;;2.88;;
70605;SDS011;58173;52.500;5.494;2023-09-07T00:22:56;6.03;;;3.05;;
70605;SDS011;58173;52.500;5.494;2023-09-07T00:25:23;5.30;;;2.80;;
70605;SDS011;58173;52.500;5.494;2023-09-07T00:27:51;7.50;;;3.63;;
70605;SDS011;58173;52.500;5.494;2023-09-07T00:30:18;6.47;;;3.25;;
70605;SDS011;58173;52.500;5.494;2023-09-07T00:32:46;5.95;;;3.13;;
70605;SDS011;58173;52.500;5.494;2023-09-07T00:35:13;6.32;;;3.30;;
70605;SDS011;58173;52.500;5.494;2023-09-07T00:37:40;6.20;;;3.40;;
70605;SDS011;58173;52.500;5.494;2023-09-07T00:40:07;6.00;;;3.25;;
70605;SDS011;58173;52.500;5.494;2023-09-07T00:42:35;6.53;;;3.47;;
70605;SDS011;58173;52.500;5.494;2023-09-07T00:45:03;7.35;;;3.35;;
70605;SDS011;58173;52.500;5.494;2023-09-07T00:47:31;6.03;;;3.22;;
70605;SDS011;58173;52.500;5.494;2023-09-07T00:50:02;7.10;;;3.53;;
70605;SDS011;58173;52.500;5.494;2023-09-07T00:52:32;6.60;;;3.53;;
70605;SDS011;58173;52.500;5.494;2023-09-07T00:55:02;7.05;;;3.35;;
70605;SDS011;58173;52.500;5.494;2023-09-07T00:57:31;8.48;;;3.50;;
70605;SDS011;58173;52.500;5.494;2023-09-07T00:59:58;7.32;;;3.40;;
70605;SDS011;58173;52.500;5.494;2023-09-07T01:02:26;7.43;;;3.63;;
70605;SDS011;58173;52.500;5.494;2023-09-07T01:04:53;6.13;;;3.10;;
70605;SDS011;58173;52.500;5.494;2023-09-07T01:07:22;6.47;;;3.70;;
70605;SDS011;58173;52.500;5.494;2023-09-07T01:09:54;6.70;;;3.33;;
70605;SDS011;58173;52.500;5.494;2023-09-07T01:12:23;6.88;;;3.70;;
70605;SDS011;58173;52.500;5.494;2023-09-07T01:14:50;7.90;;;3.22;;
70605;SDS011;58173;52.500;5.494;2023-09-07T01:17:19;7.72;;;3.53;;
70605;SDS011;58173;52.500;5.494;2023-09-07T01:19:48;6.47;;;3.55;;
70605;SDS011;58173;52.500;5.494;2023-09-07T01:22:20;8.20;;;3.67;;
70605;SDS011;58173;52.500;5.494;2023-09-07T01:24:51;6.75;;;3.40;;
70605;SDS011;58173;52.500;5.494;2023-09-07T01:27:18;7.25;;;3.80;;
70605;SDS011;58173;52.500;5.494;2023-09-07T01:29:46;6.65;;;3.53;;
70605;SDS011;58173;52.500;5.494;2023-09-07T01:32:13;6.68;;;3.47;;
70605;SDS011;58173;52.500;5.494;2023-09-07T01:34:40;7.32;;;3.75;;
70605;SDS011;58173;52.500;5.494;2023-09-07T01:37:08;6.95;;;3.80;;
70605;SDS011;58173;52.500;5.494;2023-09-07T01:39:35;6.63;;;3.70;;
70605;SDS011;58173;52.500;5.494;2023-09-07T01:42:03;6.90;;;3.40;;
70605;SDS011;58173;52.500;5.494;2023-09-07T01:44:30;6.68;;;3.58;;
70605;SDS011;58173;52.500;5.494;2023-09-07T01:46:57;6.28;;;3.33;;
70605;SDS011;58173;52.500;5.494;2023-09-07T01:49:26;6.47;;;3.33;;
70605;SDS011;58173;52.500;5.494;2023-09-07T01:51:53;6.43;;;2.92;;
70605;SDS011;58173;52.500;5.494;2023-09-07T01:54:21;7.40;;;3.75;;
70605;SDS011;58173;52.500;5.494;2023-09-07T01:56:49;9.15;;;4.10;;
70605;SDS011;58173;52.500;5.494;2023-09-07T01:59:16;6.95;;;3.75;;
70605;SDS011;58173;52.500;5.494;2023-09-07T02:01:43;7.72;;;3.75;;
70605;SDS011;58173;52.500;5.494;2023-09-07T02:04:11;7.65;;;3.90;;
70605;SDS011;58173;52.500;5.494;2023-09-07T02:06:38;7.15;;;3.53;;
70605;SDS011;58173;52.500;5.494;2023-09-07T02:09:05;7.50;;;4.13;;
70605;SDS011;58173;52.500;5.494;2023-09-07T02:11:35;7.43;;;3.60;;
70605;SDS011;58173;52.500;5.494;2023-09-07T02:14:02;7.57;;;3.65;;
70605;SDS011;58173;52.500;5.494;2023-09-07T02:16:30;7.80;;;3.75;;
70605;SDS011;58173;52.500;5.494;2023-09-07T02:19:02;7.45;;;3.60;;
70605;SDS011;58173;52.500;5.494;2023-09-07T02:21:30;8.45;;;3.72;;
70605;SDS011;58173;52.500;5.494;2023-09-07T02:23:58;6.43;;;3.60;;
70605;SDS011;58173;52.500;5.494;2023-09-07T02:26:25;7.03;;;3.88;;
70605;SDS011;58173;52.500;5.494;2023-09-07T02:28:52;8.02;;;4.38;;
70605;SDS011;58173;52.500;5.494;2023-09-07T02:31:20;6.80;;;3.47;;
70605;SDS011;58173;52.500;5.494;2023-09-07T02:33:47;6.25;;;3.25;;
70605;SDS011;58173;52.500;5.494;2023-09-07T02:36:15;7.95;;;3.80;;
70605;SDS011;58173;52.500;5.494;2023-09-07T02:38:42;8.35;;;3.92;;
70605;SDS011;58173;52.500;5.494;2023-09-07T02:41:09;6.95;;;3.80;;
70605;SDS011;58173;52.500;5.494;2023-09-07T02:43:37;7.63;;;4.22;;
70605;SDS011;58173;52.500;5.494;2023-09-07T02:46:04;6.90;;;3.63;;
70605;SDS011;58173;52.500;5.494;2023-09-07T02:48:31;7.80;;;4.30;;
70605;SDS011;58173;52.500;5.494;2023-09-07T02:50:59;8.02;;;3.90;;
70605;SDS011;58173;52.500;5.494;2023-09-07T02:53:27;8.40;;;3.70;;
70605;SDS011;58173;52.500;5.494;2023-09-07T02:55:55;6.93;;;3.95;;
70605;SDS011;58173;52.500;5.494;2023-09-07T02:58:22;7.82;;;4.03;;
70605;SDS011;58173;52.500;5.494;2023-09-07T03:00:51;7.03;;;4.05;;
70605;SDS011;58173;52.500;5.494;2023-09-07T03:03:20;6.53;;;3.55;;
70605;SDS011;58173;52.500;5.494;2023-09-07T03:05:48;7.53;;;4.07;;
70605;SDS011;58173;52.500;5.494;2023-09-07T03:08:15;7.10;;;3.58;;
70605;SDS011;58173;52.500;5.494;2023-09-07T03:10:43;7.40;;;3.90;;
70605;SDS011;58173;52.500;5.494;2023-09-07T03:13:10;8.23;;;4.07;;
70605;SDS011;58173;52.500;5.494;2023-09-07T03:15:38;7.82;;;3.75;;
70605;SDS011;58173;52.500;5.494;2023-09-07T03:18:09;6.97;;;3.67;;
70605;SDS011;58173;52.500;5.494;2023-09-07T03:20:38;7.90;;;3.60;;
70605;SDS011;58173;52.500;5.494;2023-09-07T03:23:05;8.18;;;4.05;;
70605;SDS011;58173;52.500;5.494;2023-09-07T03:25:34;7.43;;;3.47;;
70605;SDS011;58173;52.500;5.494;2023-09-07T03:28:02;7.00;;;3.72;;
70605;SDS011;58173;52.500;5.494;2023-09-07T03:30:31;7.20;;;4.18;;
70605;SDS011;58173;52.500;5.494;2023-09-07T03:32:58;7.93;;;4.40;;
70605;SDS011;58173;52.500;5.494;2023-09-07T03:35:25;9.02;;;4.03;;
70605;SDS011;58173;52.500;5.494;2023-09-07T03:37:53;7.65;;;4.00;;
70605;SDS011;58173;52.500;5.494;2023-09-07T03:40:20;8.55;;;3.92;;
70605;SDS011;58173;52.500;5.494;2023-09-07T03:42:47;6.95;;;3.85;;
70605;SDS011;58173;52.500;5.494;2023-09-07T03:45:16;7.85;;;3.95;;
70605;SDS011;58173;52.500;5.494;2023-09-07T03:47:43;8.25;;;3.80;;
70605;SDS011;58173;52.500;5.494;2023-09-07T03:50:14;7.22;;;4.10;;
70605;SDS011;58173;52.500;5.494;2023-09-07T03:52:41;6.57;;;3.92;;
70605;SDS011;58173;52.500;5.494;2023-09-07T03:55:08;7.80;;;4.00;;
70605;SDS011;58173;52.500;5.494;2023-09-07T03:57:37;6.90;;;4.10;;
70605;SDS011;58173;52.500;5.494;2023-09-07T04:00:06;8.68;;;4.03;;
70605;SDS011;58173;52.500;5.494;2023-09-07T04:02:46;7.30;;;3.75;;
70605;SDS011;58173;52.500;5.494;2023-09-07T04:05:14;7.00;;;3.60;;
70605;SDS011;58173;52.500;5.494;2023-09-07T04:07:41;7.97;;;4.00;;
70605;SDS011;58173;52.500;5.494;2023-09-07T04:10:08;6.78;;;3.80;;
70605;SDS011;58173;52.500;5.494;2023-09-07T04:12:36;7.55;;;4.20;;
70605;SDS011;58173;52.500;5.494;2023-09-07T04:15:03;6.70;;;3.58;;
70605;SDS011;58173;52.500;5.494;2023-09-07T04:17:30;7.53;;;4.07;;
70605;SDS011;58173;52.500;5.494;2023-09-07T04:20:07;9.23;;;4.50;;
70605;SDS011;58173;52.500;5.494;2023-09-07T04:22:35;7.53;;;3.90;;
70605;SDS011;58173;52.500;5.494;2023-09-07T04:25:02;7.30;;;3.60;;
70605;SDS011;58173;52.500;5.494;2023-09-07T04:27:30;8.48;;;3.95;;
70605;SDS011;58173;52.500;5.494;2023-09-07T04:29:58;7.63;;;4.10;;
70605;SDS011;58173;52.500;5.494;2023-09-07T04:32:26;8.98;;;3.90;;
70605;SDS011;58173;52.500;5.494;2023-09-07T04:34:56;7.70;;;3.80;;
70605;SDS011;58173;52.500;5.494;2023-09-07T04:37:25;7.78;;;4.07;;
70605;SDS011;58173;52.500;5.494;2023-09-07T04:39:53;7.53;;;4.10;;
70605;SDS011;58173;52.500;5.494;2023-09-07T04:42:22;8.30;;;4.45;;
70605;SDS011;58173;52.500;5.494;2023-09-07T04:44:49;8.13;;;4.45;;
70605;SDS011;58173;52.500;5.494;2023-09-07T04:47:16;7.35;;;4.07;;
70605;SDS011;58173;52.500;5.494;2023-09-07T04:49:53;7.32;;;3.83;;
70605;SDS011;58173;52.500;5.494;2023-09-07T04:52:21;10.70;;;4.70;;
70605;SDS011;58173;52.500;5.494;2023-09-07T04:54:48;8.20;;;4.18;;
70605;SDS011;58173;52.500;5.494;2023-09-07T04:57:17;6.90;;;3.67;;
70605;SDS011;58173;52.500;5.494;2023-09-07T04:59:45;7.70;;;3.97;;
70605;SDS011;58173;52.500;5.494;2023-09-07T05:02:12;7.82;;;4.25;;
70605;SDS011;58173;52.500;5.494;2023-09-07T05:04:40;9.02;;;4.22;;
70605;SDS011;58173;52.500;5.494;2023-09-07T05:07:07;7.47;;;4.25;;
70605;SDS011;58173;52.500;5.494;2023-09-07T05:09:35;7.55;;;3.92;;
70605;SDS011;58173;52.500;5.494;2023-09-07T05:12:02;7.53;;;4.40;;
70605;SDS011;58173;52.500;5.494;2023-09-07T05:14:30;6.65;;;3.70;;
70605;SDS011;58173;52.500;5.494;2023-09-07T05:16:57;7.55;;;3.80;;
70605;SDS011;58173;52.500;5.494;2023-09-07T05:19:25;7.47;;;3.95;;
70605;SDS011;58173;52.500;5.494;2023-09-07T05:21:52;7.30;;;3.72;;
70605;SDS011;58173;52.500;5.494;2023-09-07T05:24:20;7.40;;;4.10;;
70605;SDS011;58173;52.500;5.494;2023-09-07T05:26:47;6.90;;;4.13;;
70605;SDS011;58173;52.500;5.494;2023-09-07T05:29:14;6.78;;;3.63;;
70605;SDS011;58173;52.500;5.494;2023-09-07T05:31:41;7.30;;;4.07;;
70605;SDS011;58173;52.500;5.494;2023-09-07T05:34:09;7.13;;;3.70;;
70605;SDS011;58173;52.500;5.494;2023-09-07T05:36:36;7.70;;;4.32;;
70605;SDS011;58173;52.500;5.494;2023-09-07T05:39:03;7.15;;;3.70;;
70605;SDS011;58173;52.500;5.494;2023-09-07T05:41:31;7.55;;;4.00;;
70605;SDS011;58173;52.500;5.494;2023-09-07T05:43:58;6.90;;;3.88;;
70605;SDS011;58173;52.500;5.494;2023-09-07T05:46:25;7.10;;;3.85;;
70605;SDS011;58173;52.500;5.494;2023-09-07T05:48:53;8.15;;;4.03;;
70605;SDS011;58173;52.500;5.494;2023-09-07T05:51:20;7.10;;;3.92;;
70605;SDS011;58173;52.500;5.494;2023-09-07T05:53:47;8.75;;;4.45;;
70605;SDS011;58173;52.500;5.494;2023-09-07T05:56:15;7.30;;;3.88;;
70605;SDS011;58173;52.500;5.494;2023-09-07T05:58:42;7.20;;;4.07;;
70605;SDS011;58173;52.500;5.494;2023-09-07T06:01:09;8.32;;;4.15;;
70605;SDS011;58173;52.500;5.494;2023-09-07T06:03:37;7.13;;;3.70;;
70605;SDS011;58173;52.500;5.494;2023-09-07T06:06:06;7.32;;;4.20;;
70605;SDS011;58173;52.500;5.494;2023-09-07T06:08:33;7.43;;;3.40;;
70605;SDS011;58173;52.500;5.494;2023-09-07T06:11:01;6.63;;;3.55;;
70605;SDS011;58173;52.500;5.494;2023-09-07T06:13:28;6.95;;;3.78;;
70605;SDS011;58173;52.500;5.494;2023-09-07T06:15:56;9.65;;;4.75;;
70605;SDS011;58173;52.500;5.494;2023-09-07T06:18:24;8.68;;;4.28;;
70605;SDS011;58173;52.500;5.494;2023-09-07T06:20:51;7.65;;;4.10;;
70605;SDS011;58173;52.500;5.494;2023-09-07T06:23:18;7.32;;;3.67;;
70605;SDS011;58173;52.500;5.494;2023-09-07T06:25:45;6.65;;;3.38;;
70605;SDS011;58173;52.500;5.494;2023-09-07T06:28:13;8.73;;;4.20;;
70605;SDS011;58173;52.500;5.494;2023-09-07T06:30:40;8.85;;;4.70;;
70605;SDS011;58173;52.500;5.494;2023-09-07T06:33:07;7.05;;;3.75;;
70605;SDS011;58173;52.500;5.494;2023-09-07T06:35:35;8.77;;;4.57;;
70605;SDS011;58173;52.500;5.494;2023-09-07T06:38:02;9.27;;;4.05;;
70605;SDS011;58173;52.500;5.494;2023-09-07T06:40:30;8.00;;;4.60;;
70605;SDS011;58173;52.500;5.494;2023-09-07T06:42:57;6.25;;;3.67;;
70605;SDS011;58173;52.500;5.494;2023-09-07T06:45:25;8.02;;;4.07;;
70605;SDS011;58173;52.500;5.494;2023-09-07T06:47:53;7.43;;;4.43;;
70605;SDS011;58173;52.500;5.494;2023-09-07T06:50:23;7.70;;;4.47;;
70605;SDS011;58173;52.500;5.494;2023-09-07T06:52:50;9.52;;;5.05;;
70605;SDS011;58173;52.500;5.494;2023-09-07T06:55:19;8.15;;;4.28;;
70605;SDS011;58173;52.500;5.494;2023-09-07T06:57:46;7.30;;;4.22;;
70605;SDS011;58173;52.500;5.494;2023-09-07T07:00:13;6.68;;;3.95;;
70605;SDS011;58173;52.500;5.494;2023-09-07T07:02:41;6.72;;;3.60;;
70605;SDS011;58173;52.500;5.494;2023-09-07T07:05:09;8.05;;;4.00;;
70605;SDS011;58173;52.500;5.494;2023-09-07T07:07:37;7.75;;;4.35;;
70605;SDS011;58173;52.500;5.494;2023-09-07T07:10:05;6.93;;;4.15;;
70605;SDS011;58173;52.500;5.494;2023-09-07T07:12:34;7.53;;;4.35;;
70605;SDS011;58173;52.500;5.494;2023-09-07T07:15:02;6.38;;;3.60;;
70605;SDS011;58173;52.500;5.494;2023-09-07T07:17:29;8.80;;;4.20;;
70605;SDS011;58173;52.500;5.494;2023-09-07T07:19:57;8.73;;;4.75;;
70605;SDS011;58173;52.500;5.494;2023-09-07T07:22:24;7.68;;;4.40;;
70605;SDS011;58173;52.500;5.494;2023-09-07T07:24:52;7.53;;;4.05;;
70605;SDS011;58173;52.500;5.494;2023-09-07T07:27:20;7.70;;;3.83;;
70605;SDS011;58173;52.500;5.494;2023-09-07T07:29:48;7.63;;;4.07;;
70605;SDS011;58173;52.500;5.494;2023-09-07T07:32:15;8.43;;;4.32;;
70605;SDS011;58173;52.500;5.494;2023-09-07T07:34:43;8.38;;;4.50;;
70605;SDS011;58173;52.500;5.494;2023-09-07T07:37:10;7.75;;;4.10;;
70605;SDS011;58173;52.500;5.494;2023-09-07T07:39:38;7.15;;;3.65;;
70605;SDS011;58173;52.500;5.494;2023-09-07T07:42:07;6.57;;;3.50;;
70605;SDS011;58173;52.500;5.494;2023-09-07T07:44:35;6.43;;;3.63;;
70605;SDS011;58173;52.500;5.494;2023-09-07T07:47:02;6.22;;;3.58;;
70605;SDS011;58173;52.500;5.494;2023-09-07T07:49:30;7.82;;;4.15;;
70605;SDS011;58173;52.500;5.494;2023-09-07T07:51:58;7.07;;;3.78;;
70605;SDS011;58173;52.500;5.494;2023-09-07T07:54:26;6.05;;;3.25;;
70605;SDS011;58173;52.500;5.494;2023-09-07T07:56:58;5.72;;;3.35;;
70605;SDS011;58173;52.500;5.494;2023-09-07T07:59:26;8.45;;;3.97;;
70605;SDS011;58173;52.500;5.494;2023-09-07T08:01:53;5.75;;;3.10;;
70605;SDS011;58173;52.500;5.494;2023-09-07T08:04:21;6.38;;;3.45;;
70605;SDS011;58173;52.500;5.494;2023-09-07T08:06:48;7.10;;;3.97;;
70605;SDS011;58173;52.500;5.494;2023-09-07T08:09:15;8.32;;;4.35;;
70605;SDS011;58173;52.500;5.494;2023-09-07T08:11:43;6.47;;;3.55;;
70605;SDS011;58173;52.500;5.494;2023-09-07T08:14:11;9.55;;;5.15;;
70605;SDS011;58173;52.500;5.494;2023-09-07T08:16:38;7.82;;;4.00;;
70605;SDS011;58173;52.500;5.494;2023-09-07T08:19:07;8.20;;;3.60;;
70605;SDS011;58173;52.500;5.494;2023-09-07T08:21:34;7.50;;;4.13;;
70605;SDS011;58173;52.500;5.494;2023-09-07T08:24:02;7.68;;;4.47;;
70605;SDS011;58173;52.500;5.494;2023-09-07T08:26:30;10.32;;;5.20;;
70605;SDS011;58173;52.500;5.494;2023-09-07T08:28:57;10.48;;;5.75;;
70605;SDS011;58173;52.500;5.494;2023-09-07T08:31:25;11.02;;;5.65;;
70605;SDS011;58173;52.500;5.494;2023-09-07T08:33:52;9.02;;;5.43;;
70605;SDS011;58173;52.500;5.494;2023-09-07T08:36:21;8.73;;;4.82;;
70605;SDS011;58173;52.500;5.494;2023-09-07T08:38:50;7.15;;;3.88;;
70605;SDS011;58173;52.500;5.494;2023-09-07T08:41:20;5.65;;;3.33;;
70605;SDS011;58173;52.500;5.494;2023-09-07T08:43:47;5.70;;;3.13;;
70605;SDS011;58173;52.500;5.494;2023-09-07T08:46:18;6.45;;;3.60;;
70605;SDS011;58173;52.500;5.494;2023-09-07T08:48:47;6.47;;;3.45;;
70605;SDS011;58173;52.500;5.494;2023-09-07T08:51:16;6.75;;;3.78;;
70605;SDS011;58173;52.500;5.494;2023-09-07T08:53:44;7.60;;;3.92;;
70605;SDS011;58173;52.500;5.494;2023-09-07T08:56:13;6.43;;;3.50;;
70605;SDS011;58173;52.500;5.494;2023-09-07T08:58:41;6.05;;;3.50;;
70605;SDS011;58173;52.500;5.494;2023-09-07T09:01:11;10.50;;;5.70;;
70605;SDS011;58173;52.500;5.494;2023-09-07T09:03:39;10.45;;;5.40;;
70605;SDS011;58173;52.500;5.494;2023-09-07T09:06:08;9.15;;;5.40;;
70605;SDS011;58173;52.500;5.494;2023-09-07T09:08:45;9.15;;;5.50;;
70605;SDS011;58173;52.500;5.494;2023-09-07T09:11:16;10.25;;;5.03;;
70605;SDS011;58173;52.500;5.494;2023-09-07T09:13:44;9.18;;;4.80;;
70605;SDS011;58173;52.500;5.494;2023-09-07T09:16:11;9.88;;;4.97;;
70605;SDS011;58173;52.500;5.494;2023-09-07T09:18:56;9.15;;;5.32;;
70605;SDS011;58173;52.500;5.494;2023-09-07T09:21:24;10.52;;;5.13;;
70605;SDS011;58173;52.500;5.494;2023-09-07T09:23:52;9.85;;;5.18;;
70605;SDS011;58173;52.500;5.494;2023-09-07T09:26:21;8.57;;;4.95;;
70605;SDS011;58173;52.500;5.494;2023-09-07T09:28:51;10.05;;;4.70;;
70605;SDS011;58173;52.500;5.494;2023-09-07T09:31:19;8.55;;;5.30;;
70605;SDS011;58173;52.500;5.494;2023-09-07T09:33:49;10.48;;;5.25;;
70605;SDS011;58173;52.500;5.494;2023-09-07T09:36:18;11.10;;;4.75;;
70605;SDS011;58173;52.500;5.494;2023-09-07T09:38:48;11.45;;;5.00;;
70605;SDS011;58173;52.500;5.494;2023-09-07T09:41:19;8.82;;;4.65;;
70605;SDS011;58173;52.500;5.494;2023-09-07T09:43:50;10.73;;;5.43;;
70605;SDS011;58173;52.500;5.494;2023-09-07T09:46:18;9.20;;;4.60;;
70605;SDS011;58173;52.500;5.494;2023-09-07T09:48:45;9.10;;;5.45;;
70605;SDS011;58173;52.500;5.494;2023-09-07T09:51:13;9.57;;;4.97;;
70605;SDS011;58173;52.500;5.494;2023-09-07T09:53:41;8.95;;;4.63;;
70605;SDS011;58173;52.500;5.494;2023-09-07T09:56:09;9.75;;;4.78;;
70605;SDS011;58173;52.500;5.494;2023-09-07T09:58:36;8.10;;;4.22;;
70605;SDS011;58173;52.500;5.494;2023-09-07T10:01:04;8.60;;;4.20;;
70605;SDS011;58173;52.500;5.494;2023-09-07T10:03:34;7.10;;;3.90;;
70605;SDS011;58173;52.500;5.494;2023-09-07T10:06:10;8.20;;;4.50;;
70605;SDS011;58173;52.500;5.494;2023-09-07T10:08:38;6.47;;;3.70;;
70605;SDS011;58173;52.500;5.494;2023-09-07T10:11:08;8.45;;;2.88;;
70605;SDS011;58173;52.500;5.494;2023-09-07T10:13:36;5.78;;;3.20;;
70605;SDS011;58173;52.500;5.494;2023-09-07T10:16:04;6.32;;;3.55;;
70605;SDS011;58173;52.500;5.494;2023-09-07T10:18:34;7.10;;;3.17;;
70605;SDS011;58173;52.500;5.494;2023-09-07T10:21:05;6.68;;;3.45;;
70605;SDS011;58173;52.500;5.494;2023-09-07T10:23:36;5.90;;;2.90;;
70605;SDS011;58173;52.500;5.494;2023-09-07T10:26:05;6.60;;;3.42;;
70605;SDS011;58173;52.500;5.494;2023-09-07T10:28:32;5.93;;;2.78;;
70605;SDS011;58173;52.500;5.494;2023-09-07T10:31:04;5.57;;;3.05;;
70605;SDS011;58173;52.500;5.494;2023-09-07T10:33:32;7.13;;;3.58;;
70605;SDS011;58173;52.500;5.494;2023-09-07T10:36:00;6.22;;;3.38;;
70605;SDS011;58173;52.500;5.494;2023-09-07T10:38:28;5.38;;;3.00;;
70605;SDS011;58173;52.500;5.494;2023-09-07T10:40:59;6.15;;;3.22;;
70605;SDS011;58173;52.500;5.494;2023-09-07T10:43:31;5.97;;;3.10;;
70605;SDS011;58173;52.500;5.494;2023-09-07T10:45:59;8.70;;;3.47;;
70605;SDS011;58173;52.500;5.494;2023-09-07T10:48:31;7.05;;;3.50;;
70605;SDS011;58173;52.500;5.494;2023-09-07T10:50:58;5.93;;;3.05;;
70605;SDS011;58173;52.500;5.494;2023-09-07T10:53:27;6.68;;;2.65;;
70605;SDS011;58173;52.500;5.494;2023-09-07T10:56:02;6.43;;;3.20;;
70605;SDS011;58173;52.500;5.494;2023-09-07T10:58:30;7.32;;;3.33;;
70605;SDS011;58173;52.500;5.494;2023-09-07T11:00:58;6.75;;;3.63;;
70605;SDS011;58173;52.500;5.494;2023-09-07T11:03:26;6.40;;;3.50;;
70605;SDS011;58173;52.500;5.494;2023-09-07T11:05:54;7.68;;;3.50;;
70605;SDS011;58173;52.500;5.494;2023-09-07T11:10:51;8.88;;;3.60;;
70605;SDS011;58173;52.500;5.494;2023-09-07T11:13:18;7.28;;;3.80;;
70605;SDS011;58173;52.500;5.494;2023-09-07T11:15:45;6.15;;;3.50;;
70605;SDS011;58173;52.500;5.494;2023-09-07T11:18:13;6.53;;;3.40;;
70605;SDS011;58173;52.500;5.494;2023-09-07T11:20:40;6.45;;;3.72;;
70605;SDS011;58173;52.500;5.494;2023-09-07T11:23:08;6.85;;;3.60;;
70605;SDS011;58173;52.500;5.494;2023-09-07T11:25:36;6.40;;;3.88;;
70605;SDS011;58173;52.500;5.494;2023-09-07T11:28:04;9.32;;;3.83;;
70605;SDS011;58173;52.500;5.494;2023-09-07T11:30:32;7.32;;;3.58;;
70605;SDS011;58173;52.500;5.494;2023-09-07T11:33:04;6.80;;;3.30;;
70605;SDS011;58173;52.500;5.494;2023-09-07T11:35:32;7.18;;;3.90;;
70605;SDS011;58173;52.500;5.494;2023-09-07T11:38:00;7.22;;;3.47;;
70605;SDS011;58173;52.500;5.494;2023-09-07T11:40:27;7.65;;;3.40;;
70605;SDS011;58173;52.500;5.494;2023-09-07T11:42:54;6.25;;;3.38;;
70605;SDS011;58173;52.500;5.494;2023-09-07T11:45:21;8.68;;;3.72;;
70605;SDS011;58173;52.500;5.494;2023-09-07T11:47:49;7.88;;;3.40;;
70605;SDS011;58173;52.500;5.494;2023-09-07T11:50:17;6.30;;;3.30;;
70605;SDS011;58173;52.500;5.494;2023-09-07T11:52:45;6.10;;;3.45;;
70605;SDS011;58173;52.500;5.494;2023-09-07T11:55:13;6.43;;;3.47;;
70605;SDS011;58173;52.500;5.494;2023-09-07T11:57:41;7.05;;;3.90;;
70605;SDS011;58173;52.500;5.494;2023-09-07T12:00:09;5.70;;;3.30;;
70605;SDS011;58173;52.500;5.494;2023-09-07T12:02:38;7.00;;;3.80;;
70605;SDS011;58173;52.500;5.494;2023-09-07T12:05:06;6.85;;;3.88;;
70605;SDS011;58173;52.500;5.494;2023-09-07T12:07:38;6.50;;;3.70;;
70605;SDS011;58173;52.500;5.494;2023-09-07T12:10:06;6.07;;;3.13;;
70605;SDS011;58173;52.500;5.494;2023-09-07T12:12:36;6.93;;;3.70;;
70605;SDS011;58173;52.500;5.494;2023-09-07T12:15:04;6.20;;;3.55;;
70605;SDS011;58173;52.500;5.494;2023-09-07T12:17:31;6.88;;;3.70;;
70605;SDS011;58173;52.500;5.494;2023-09-07T12:19:59;6.40;;;3.30;;
70605;SDS011;58173;52.500;5.494;2023-09-07T12:22:26;5.97;;;3.42;;
70605;SDS011;58173;52.500;5.494;2023-09-07T12:24:55;6.90;;;3.88;;
70605;SDS011;58173;52.500;5.494;2023-09-07T12:27:39;6.82;;;3.90;;
70605;SDS011;58173;52.500;5.494;2023-09-07T12:30:19;6.75;;;3.63;;
70605;SDS011;58173;52.500;5.494;2023-09-07T12:32:48;6.10;;;3.30;;
70605;SDS011;58173;52.500;5.494;2023-09-07T12:35:16;7.28;;;3.65;;
70605;SDS011;58173;52.500;5.494;2023-09-07T12:37:43;7.35;;;4.15;;
70605;SDS011;58173;52.500;5.494;2023-09-07T12:40:11;6.22;;;3.63;;
70605;SDS011;58173;52.500;5.494;2023-09-07T12:42:42;6.78;;;3.33;;
70605;SDS011;58173;52.500;5.494;2023-09-07T12:45:09;7.97;;;3.55;;
70605;SDS011;58173;52.500;5.494;2023-09-07T12:47:37;7.57;;;3.60;;
70605;SDS011;58173;52.500;5.494;2023-09-07T12:50:04;6.40;;;3.60;;
70605;SDS011;58173;52.500;5.494;2023-09-07T12:52:33;6.00;;;3.35;;
70605;SDS011;58173;52.500;5.494;2023-09-07T12:55:06;8.38;;;3.67;;
70605;SDS011;58173;52.500;5.494;2023-09-07T12:57:34;8.65;;;3.72;;
70605;SDS011;58173;52.500;5.494;2023-09-07T13:00:03;6.25;;;3.60;;
70605;SDS011;58173;52.500;5.494;2023-09-07T13:02:32;7.43;;;3.67;;
70605;SDS011;58173;52.500;5.494;2023-09-07T13:04:59;6.72;;;3.80;;
70605;SDS011;58173;52.500;5.494;2023-09-07T13:07:26;7.57;;;3.45;;
70605;SDS011;58173;52.500;5.494;2023-09-07T13:09:54;7.03;;;3.70;;
70605;SDS011;58173;52.500;5.494;2023-09-07T13:12:21;8.40;;;3.47;;
70605;SDS011;58173;52.500;5.494;2023-09-07T13:14:49;6.80;;;3.50;;
70605;SDS011;58173;52.500;5.494;2023-09-07T13:17:16;9.13;;;3.95;;
70605;SDS011;58173;52.500;5.494;2023-09-07T13:19:43;6.57;;;3.60;;
70605;SDS011;58173;52.500;5.494;2023-09-07T13:22:11;8.80;;;4.25;;
70605;SDS011;58173;52.500;5.494;2023-09-07T13:24:39;7.35;;;3.90;;
70605;SDS011;58173;52.500;5.494;2023-09-07T13:27:06;7.80;;;3.60;;
70605;SDS011;58173;52.500;5.494;2023-09-07T13:29:36;7.10;;;3.90;;
70605;SDS011;58173;52.500;5.494;2023-09-07T13:32:03;6.68;;;4.00;;
70605;SDS011;58173;52.500;5.494;2023-09-07T13:34:31;8.13;;;4.00;;
70605;SDS011;58173;52.500;5.494;2023-09-07T13:36:58;8.18;;;4.07;;
70605;SDS011;58173;52.500;5.494;2023-09-07T13:39:25;7.20;;;3.70;;
70605;SDS011;58173;52.500;5.494;2023-09-07T13:41:52;6.75;;;3.75;;
70605;SDS011;58173;52.500;5.494;2023-09-07T13:44:20;9.77;;;3.65;;
70605;SDS011;58173;52.500;5.494;2023-09-07T13:46:47;6.47;;;3.85;;
70605;SDS011;58173;52.500;5.494;2023-09-07T13:49:14;6.85;;;3.63;;
70605;SDS011;58173;52.500;5.494;2023-09-07T13:51:42;7.85;;;3.72;;
70605;SDS011;58173;52.500;5.494;2023-09-07T13:54:11;7.03;;;3.90;;
70605;SDS011;58173;52.500;5.494;2023-09-07T13:56:38;7.22;;;3.97;;
70605;SDS011;58173;52.500;5.494;2023-09-07T13:59:08;7.78;;;3.80;;
70605;SDS011;58173;52.500;5.494;2023-09-07T14:01:35;7.65;;;4.15;;
70605;SDS011;58173;52.500;5.494;2023-09-07T14:04:04;7.38;;;4.18;;
70605;SDS011;58173;52.500;5.494;2023-09-07T14:06:31;7.13;;;4.22;;
70605;SDS011;58173;52.500;5.494;2023-09-07T14:08:58;7.07;;;4.00;;
70605;SDS011;58173;52.500;5.494;2023-09-07T14:11:25;7.15;;;4.35;;
70605;SDS011;58173;52.500;5.494;2023-09-07T14:13:52;7.57;;;3.88;;
70605;SDS011;58173;52.500;5.494;2023-09-07T14:16:21;7.95;;;4.07;;
70605;SDS011;58173;52.500;5.494;2023-09-07T14:18:49;7.38;;;4.13;;
70605;SDS011;58173;52.500;5.494;2023-09-07T14:21:17;7.55;;;4.15;;
70605;SDS011;58173;52.500;5.494;2023-09-07T14:23:44;8.73;;;4.32;;
70605;SDS011;58173;52.500;5.494;2023-09-07T14:26:12;7.45;;;4.20;;
70605;SDS011;58173;52.500;5.494;2023-09-07T14:28:39;6.82;;;3.85;;
70605;SDS011;58173;52.500;5.494;2023-09-07T14:31:07;6.97;;;4.20;;
70605;SDS011;58173;52.500;5.494;2023-09-07T14:33:35;6.88;;;4.05;;
70605;SDS011;58173;52.500;5.494;2023-09-07T14:36:08;7.20;;;4.10;;
70605;SDS011;58173;52.500;5.494;2023-09-07T14:38:35;8.20;;;3.67;;
70605;SDS011;58173;52.500;5.494;2023-09-07T14:41:08;6.65;;;3.90;;
70605;SDS011;58173;52.500;5.494;2023-09-07T14:43:45;6.88;;;3.85;;
70605;SDS011;58173;52.500;5.494;2023-09-07T14:46:13;7.50;;;4.50;;
70605;SDS011;58173;52.500;5.494;2023-09-07T14:48:41;7.07;;;4.20;;
70605;SDS011;58173;52.500;5.494;2023-09-07T14:51:09;7.90;;;4.30;;
70605;SDS011;58173;52.500;5.494;2023-09-07T14:53:36;7.53;;;3.88;;
70605;SDS011;58173;52.500;5.494;2023-09-07T14:56:04;7.35;;;4.18;;